Terminal Aerodrome Forecast
Issued by NWS Sterling, VA

Home | Current Version | Previous Version | Text Only | Print | Product List | Glossary On
Versions: 1 2 3 4 5 6 7 8 9 10 11 12 13 14 15 16 17 18 19 20 21 22 23 24
000
FTUS41 KLWX 232331
TAFBWI
TAF
KBWI 232331Z 2400/2506 VRB03KT P6SM FEW200
     FM241400 20007KT P6SM FEW060 SCT200
     FM242300 17005KT P6SM BKN070
     FM250300 17006KT P6SM SCT070=

USA.gov is the U.S. government's official web portal to all federal, state and local government web resources and services.